sensor_id;sensor_type;location;lat;lon;timestamp;pressure;altitude;pressure_sealevel;temperature;humidity
70684;BME280;58263;48.146;11.440;2024-01-16T00:01:43;94956.41;;;-2.91;71.32
70684;BME280;58263;48.146;11.440;2024-01-16T00:04:09;94963.63;;;-3.01;71.25
70684;BME280;58263;48.146;11.440;2024-01-16T00:06:39;94966.91;;;-3.08;71.87
70684;BME280;58263;48.146;11.440;2024-01-16T00:09:05;94973.81;;;-3.07;71.85
70684;BME280;58263;48.146;11.440;2024-01-16T00:11:31;94965.63;;;-3.12;72.45
70684;BME280;58263;48.146;11.440;2024-01-16T00:13:56;94968.25;;;-3.20;72.29
70684;BME280;58263;48.146;11.440;2024-01-16T00:16:21;94965.63;;;-3.28;72.20
70684;BME280;58263;48.146;11.440;2024-01-16T00:18:46;94970.88;;;-3.28;71.40
70684;BME280;58263;48.146;11.440;2024-01-16T00:21:12;94964.31;;;-3.41;72.35
70684;BME280;58263;48.146;11.440;2024-01-16T00:23:37;94970.38;;;-3.40;71.96
70684;BME280;58263;48.146;11.440;2024-01-16T00:26:02;94967.56;;;-3.47;72.49
70684;BME280;58263;48.146;11.440;2024-01-16T00:28:27;94965.78;;;-3.46;72.12
70684;BME280;58263;48.146;11.440;2024-01-16T00:30:52;94979.03;;;-3.40;71.10
70684;BME280;58263;48.146;11.440;2024-01-16T00:33:18;94979.38;;;-3.34;72.66
70684;BME280;58263;48.146;11.440;2024-01-16T00:35:43;94974.47;;;-3.37;71.32
70684;BME280;58263;48.146;11.440;2024-01-16T00:38:08;94974.63;;;-3.47;71.30
70684;BME280;58263;48.146;11.440;2024-01-16T00:40:34;94978.84;;;-3.54;71.65
70684;BME280;58263;48.146;11.440;2024-01-16T00:42:59;94981.66;;;-3.56;71.98
70684;BME280;58263;48.146;11.440;2024-01-16T00:45:24;94990.53;;;-3.49;71.95
70684;BME280;58263;48.146;11.440;2024-01-16T00:47:49;94992.13;;;-3.56;72.11
70684;BME280;58263;48.146;11.440;2024-01-16T00:50:15;94997.53;;;-3.58;71.64
70684;BME280;58263;48.146;11.440;2024-01-16T00:52:40;95001.63;;;-3.63;71.77
70684;BME280;58263;48.146;11.440;2024-01-16T00:55:05;95004.91;;;-3.61;71.98
70684;BME280;58263;48.146;11.440;2024-01-16T00:57:31;95005.03;;;-3.71;72.43
70684;BME280;58263;48.146;11.440;2024-01-16T00:59:56;95008.84;;;-3.65;72.17
70684;BME280;58263;48.146;11.440;2024-01-16T01:02:21;95010.63;;;-3.74;71.77
70684;BME280;58263;48.146;11.440;2024-01-16T01:04:46;95018.16;;;-3.71;72.09
70684;BME280;58263;48.146;11.440;2024-01-16T01:07:13;95018.97;;;-3.70;72.51
70684;BME280;58263;48.146;11.440;2024-01-16T01:09:39;95026.50;;;-3.76;72.10
70684;BME280;58263;48.146;11.440;2024-01-16T01:12:04;95025.81;;;-3.78;72.28
70684;BME280;58263;48.146;11.440;2024-01-16T01:14:30;95027.81;;;-3.71;72.92
70684;BME280;58263;48.146;11.440;2024-01-16T01:16:56;95030.09;;;-3.77;72.27
70684;BME280;58263;48.146;11.440;2024-01-16T01:19:21;95029.94;;;-3.67;71.99
70684;BME280;58263;48.146;11.440;2024-01-16T01:21:46;95039.28;;;-3.72;72.28
70684;BME280;58263;48.146;11.440;2024-01-16T01:24:12;95032.88;;;-3.78;72.92
70684;BME280;58263;48.146;11.440;2024-01-16T01:26:37;95039.28;;;-3.72;72.69
70684;BME280;58263;48.146;11.440;2024-01-16T01:29:02;95045.16;;;-3.79;73.13
70684;BME280;58263;48.146;11.440;2024-01-16T01:31:27;95050.88;;;-3.75;72.60
70684;BME280;58263;48.146;11.440;2024-01-16T01:33:53;95048.94;;;-3.73;72.65
70684;BME280;58263;48.146;11.440;2024-01-16T01:36:18;95066.66;;;-3.59;72.76
70684;BME280;58263;48.146;11.440;2024-01-16T01:38:43;95066.00;;;-3.61;73.91
70684;BME280;58263;48.146;11.440;2024-01-16T01:41:09;95065.34;;;-3.63;72.99
70684;BME280;58263;48.146;11.440;2024-01-16T01:43:36;95063.19;;;-3.67;73.02
70684;BME280;58263;48.146;11.440;2024-01-16T01:46:28;95075.00;;;-3.63;72.81
70684;BME280;58263;48.146;11.440;2024-01-16T01:48:55;95071.91;;;-3.59;72.63
70684;BME280;58263;48.146;11.440;2024-01-16T01:51:20;95075.19;;;-3.57;72.21
70684;BME280;58263;48.146;11.440;2024-01-16T01:53:48;95071.09;;;-3.51;71.60
70684;BME280;58263;48.146;11.440;2024-01-16T01:56:17;95068.03;;;-3.46;72.18
70684;BME280;58263;48.146;11.440;2024-01-16T01:58:43;95070.94;;;-3.49;72.55
70684;BME280;58263;48.146;11.440;2024-01-16T02:01:10;95080.28;;;-3.47;72.70
70684;BME280;58263;48.146;11.440;2024-01-16T02:03:41;95077.66;;;-3.47;72.51
70684;BME280;58263;48.146;11.440;2024-01-16T02:06:07;95085.53;;;-3.47;72.77
70684;BME280;58263;48.146;11.440;2024-01-16T02:08:33;95075.75;;;-3.36;72.88
70684;BME280;58263;48.146;11.440;2024-01-16T02:10:58;95084.91;;;-3.41;72.61
70684;BME280;58263;48.146;11.440;2024-01-16T02:13:23;95089.81;;;-3.37;72.17
70684;BME280;58263;48.146;11.440;2024-01-16T02:15:49;95087.03;;;-3.36;71.70
70684;BME280;58263;48.146;11.440;2024-01-16T02:18:15;95085.22;;;-3.44;71.69
70684;BME280;58263;48.146;11.440;2024-01-16T02:20:41;95093.22;;;-3.45;71.64
70684;BME280;58263;48.146;11.440;2024-01-16T02:23:07;95084.88;;;-3.49;71.77
70684;BME280;58263;48.146;11.440;2024-01-16T02:25:32;95082.91;;;-3.47;70.70
70684;BME280;58263;48.146;11.440;2024-01-16T02:27:59;95085.53;;;-3.47;71.17
70684;BME280;58263;48.146;11.440;2024-01-16T02:30:25;95077.03;;;-3.49;70.57
70684;BME280;58263;48.146;11.440;2024-01-16T02:32:50;95084.88;;;-3.49;70.61
70684;BME280;58263;48.146;11.440;2024-01-16T02:35:16;95095.38;;;-3.49;70.60
70684;BME280;58263;48.146;11.440;2024-01-16T02:37:42;95098.00;;;-3.49;71.00
70684;BME280;58263;48.146;11.440;2024-01-16T02:40:07;95095.22;;;-3.47;71.81
70684;BME280;58263;48.146;11.440;2024-01-16T02:42:34;95102.25;;;-3.40;71.85
70684;BME280;58263;48.146;11.440;2024-01-16T02:45:01;95098.63;;;-3.47;71.78
70684;BME280;58263;48.146;11.440;2024-01-16T02:47:26;95090.78;;;-3.47;71.45
70684;BME280;58263;48.146;11.440;2024-01-16T02:49:52;95089.13;;;-3.48;70.88
70684;BME280;58263;48.146;11.440;2024-01-16T02:52:17;95091.91;;;-3.49;70.87
70684;BME280;58263;48.146;11.440;2024-01-16T02:54:43;95088.47;;;-3.50;71.27
70684;BME280;58263;48.146;11.440;2024-01-16T02:57:09;95099.44;;;-3.54;70.88
70684;BME280;58263;48.146;11.440;2024-01-16T02:59:35;95105.19;;;-3.51;71.29
70684;BME280;58263;48.146;11.440;2024-01-16T03:02:00;95107.63;;;-3.49;71.95
70684;BME280;58263;48.146;11.440;2024-01-16T03:04:25;95107.44;;;-3.64;71.10
70684;BME280;58263;48.146;11.440;2024-01-16T03:06:50;95112.84;;;-3.66;72.02
70684;BME280;58263;48.146;11.440;2024-01-16T03:09:16;95105.81;;;-3.65;71.46
70684;BME280;58263;48.146;11.440;2024-01-16T03:11:41;95108.88;;;-3.70;71.79
70684;BME280;58263;48.146;11.440;2024-01-16T03:14:06;95111.31;;;-3.77;72.23
70684;BME280;58263;48.146;11.440;2024-01-16T03:16:32;95111.31;;;-3.77;71.79
70684;BME280;58263;48.146;11.440;2024-01-16T03:18:57;95118.19;;;-3.76;72.19
70684;BME280;58263;48.146;11.440;2024-01-16T03:21:22;95114.41;;;-3.81;72.44
70684;BME280;58263;48.146;11.440;2024-01-16T03:23:48;95110.03;;;-3.72;72.06
70684;BME280;58263;48.146;11.440;2024-01-16T03:26:14;95111.31;;;-3.77;71.72
70684;BME280;58263;48.146;11.440;2024-01-16T03:28:40;95107.72;;;-3.76;71.74
70684;BME280;58263;48.146;11.440;2024-01-16T03:31:05;95109.63;;;-3.86;72.32
70684;BME280;58263;48.146;11.440;2024-01-16T03:33:30;95116.03;;;-3.88;72.72
70684;BME280;58263;48.146;11.440;2024-01-16T03:35:55;95114.56;;;-3.83;72.19
70684;BME280;58263;48.146;11.440;2024-01-16T03:38:21;95109.63;;;-3.86;71.88
70684;BME280;58263;48.146;11.440;2024-01-16T03:40:46;95110.91;;;-3.90;72.29
70684;BME280;58263;48.146;11.440;2024-01-16T03:43:11;95112.59;;;-3.81;72.03
70684;BME280;58263;48.146;11.440;2024-01-16T03:45:36;95105.59;;;-3.80;71.99
70684;BME280;58263;48.146;11.440;2024-01-16T03:48:02;95112.16;;;-3.76;71.89
70684;BME280;58263;48.146;11.440;2024-01-16T03:50:28;95107.03;;;-3.78;71.53
70684;BME280;58263;48.146;11.440;2024-01-16T03:52:53;95102.44;;;-3.84;71.60
70684;BME280;58263;48.146;11.440;2024-01-16T03:55:18;95104.06;;;-3.91;72.17
70684;BME280;58263;48.146;11.440;2024-01-16T03:57:44;95097.72;;;-3.80;71.43
70684;BME280;58263;48.146;11.440;2024-01-16T04:00:11;95107.16;;;-3.87;72.37
70684;BME280;58263;48.146;11.440;2024-01-16T04:02:38;95109.94;;;-3.89;71.96
70684;BME280;58263;48.146;11.440;2024-01-16T04:05:03;95109.13;;;-3.89;72.03
70684;BME280;58263;48.146;11.440;2024-01-16T04:07:29;95108.97;;;-3.88;72.04
70684;BME280;58263;48.146;11.440;2024-01-16T04:09:54;95116.25;;;-3.74;72.30
70684;BME280;58263;48.146;11.440;2024-01-16T04:12:19;95112.88;;;-3.92;72.29
70684;BME280;58263;48.146;11.440;2024-01-16T04:14:45;95111.97;;;-3.83;73.00
70684;BME280;58263;48.146;11.440;2024-01-16T04:17:10;95112.25;;;-3.86;73.29
70684;BME280;58263;48.146;11.440;2024-01-16T04:19:35;95116.84;;;-3.88;73.13
70684;BME280;58263;48.146;11.440;2024-01-16T04:22:01;95112.56;;;-3.89;73.67
70684;BME280;58263;48.146;11.440;2024-01-16T04:24:29;95113.09;;;-3.85;73.51
70684;BME280;58263;48.146;11.440;2024-01-16T04:26:54;95122.13;;;-3.80;73.46
70684;BME280;58263;48.146;11.440;2024-01-16T04:29:20;95121.78;;;-3.77;73.92
70684;BME280;58263;48.146;11.440;2024-01-16T04:31:45;95113.94;;;-3.77;73.38
70684;BME280;58263;48.146;11.440;2024-01-16T04:34:10;95119.50;;;-3.80;73.85
70684;BME280;58263;48.146;11.440;2024-01-16T04:36:35;95116.25;;;-3.74;72.66
70684;BME280;58263;48.146;11.440;2024-01-16T04:39:01;95110.34;;;-3.76;73.32
70684;BME280;58263;48.146;11.440;2024-01-16T04:41:26;95109.38;;;-3.75;72.71
70684;BME280;58263;48.146;11.440;2024-01-16T04:43:51;95109.97;;;-3.81;72.64
70684;BME280;58263;48.146;11.440;2024-01-16T04:46:16;95103.41;;;-3.85;72.96
70684;BME280;58263;48.146;11.440;2024-01-16T04:48:42;95092.13;;;-3.85;72.86
70684;BME280;58263;48.146;11.440;2024-01-16T04:51:07;95096.69;;;-3.87;72.63
70684;BME280;58263;48.146;11.440;2024-01-16T04:53:33;95097.22;;;-3.84;72.23
70684;BME280;58263;48.146;11.440;2024-01-16T04:55:58;95100.31;;;-3.88;72.77
70684;BME280;58263;48.146;11.440;2024-01-16T04:58:24;95096.84;;;-3.89;72.44
70684;BME280;58263;48.146;11.440;2024-01-16T05:00:49;95097.16;;;-3.92;72.19
70684;BME280;58263;48.146;11.440;2024-01-16T05:03:14;95100.31;;;-3.88;72.19
70684;BME280;58263;48.146;11.440;2024-01-16T05:05:39;95096.41;;;-3.84;72.29
70684;BME280;58263;48.146;11.440;2024-01-16T05:08:05;95094.22;;;-3.89;72.79
70684;BME280;58263;48.146;11.440;2024-01-16T05:10:30;95097.16;;;-3.92;71.83
70684;BME280;58263;48.146;11.440;2024-01-16T05:12:56;95091.94;;;-3.92;71.99
70684;BME280;58263;48.146;11.440;2024-01-16T05:15:21;95090.41;;;-4.03;72.22
70684;BME280;58263;48.146;11.440;2024-01-16T05:17:46;95091.41;;;-3.96;72.37
70684;BME280;58263;48.146;11.440;2024-01-16T05:20:11;95091.06;;;-4.01;72.70
70684;BME280;58263;48.146;11.440;2024-01-16T05:22:37;95096.16;;;-3.99;72.51
70684;BME280;58263;48.146;11.440;2024-01-16T05:25:04;95093.34;;;-4.06;72.75
70684;BME280;58263;48.146;11.440;2024-01-16T05:27:29;95097.25;;;-4.10;72.94
70684;BME280;58263;48.146;11.440;2024-01-16T05:29:55;95095.25;;;-4.16;73.55
70684;BME280;58263;48.146;11.440;2024-01-16T05:32:20;95090.34;;;-4.19;73.89
70684;BME280;58263;48.146;11.440;2024-01-16T05:34:45;95092.91;;;-4.28;73.76
70684;BME280;58263;48.146;11.440;2024-01-16T05:37:11;95089.31;;;-4.27;73.80
70684;BME280;58263;48.146;11.440;2024-01-16T05:39:36;95091.41;;;-4.30;74.22
70684;BME280;58263;48.146;11.440;2024-01-16T05:42:01;95091.78;;;-4.25;73.65
70684;BME280;58263;48.146;11.440;2024-01-16T05:44:27;95101.25;;;-4.24;74.16
70684;BME280;58263;48.146;11.440;2024-01-16T05:46:53;95090.72;;;-4.32;74.15
70684;BME280;58263;48.146;11.440;2024-01-16T05:49:18;95100.41;;;-4.33;74.60
70684;BME280;58263;48.146;11.440;2024-01-16T05:51:43;95093.81;;;-4.37;74.12
70684;BME280;58263;48.146;11.440;2024-01-16T05:54:09;95100.66;;;-4.44;74.48
70684;BME280;58263;48.146;11.440;2024-01-16T05:56:34;95100.59;;;-4.52;75.30
70684;BME280;58263;48.146;11.440;2024-01-16T05:58:59;95097.50;;;-4.48;74.25
70684;BME280;58263;48.146;11.440;2024-01-16T06:01:24;95094.53;;;-4.53;74.35
70684;BME280;58263;48.146;11.440;2024-01-16T06:03:50;95089.97;;;-4.51;74.83
70684;BME280;58263;48.146;11.440;2024-01-16T06:06:15;95080.47;;;-4.52;74.30
70684;BME280;58263;48.146;11.440;2024-01-16T06:08:41;95088.34;;;-4.52;74.24
70684;BME280;58263;48.146;11.440;2024-01-16T06:11:07;95089.09;;;-4.60;74.35
70684;BME280;58263;48.146;11.440;2024-01-16T06:13:32;95088.97;;;-4.58;74.45
70684;BME280;58263;48.146;11.440;2024-01-16T06:15:58;95084.53;;;-4.57;74.45
70684;BME280;58263;48.146;11.440;2024-01-16T06:18:23;95090.22;;;-4.62;74.16
70684;BME280;58263;48.146;11.440;2024-01-16T06:20:48;95088.81;;;-4.56;73.59
70684;BME280;58263;48.146;11.440;2024-01-16T06:23:14;95085.66;;;-4.60;74.60
70684;BME280;58263;48.146;11.440;2024-01-16T06:25:39;95082.78;;;-4.49;74.51
70684;BME280;58263;48.146;11.440;2024-01-16T06:28:05;95083.84;;;-4.60;74.54
70684;BME280;58263;48.146;11.440;2024-01-16T06:30:30;95081.88;;;-4.66;74.89
70684;BME280;58263;48.146;11.440;2024-01-16T06:32:56;95085.75;;;-4.70;75.54
70684;BME280;58263;48.146;11.440;2024-01-16T06:35:21;95086.41;;;-4.68;74.98
70684;BME280;58263;48.146;11.440;2024-01-16T06:37:48;95093.59;;;-4.70;75.59
70684;BME280;58263;48.146;11.440;2024-01-16T06:40:14;95092.22;;;-4.56;75.04
70684;BME280;58263;48.146;11.440;2024-01-16T06:42:39;95091.22;;;-4.63;74.74
70684;BME280;58263;48.146;11.440;2024-01-16T06:45:05;95100.63;;;-4.70;74.93
70684;BME280;58263;48.146;11.440;2024-01-16T06:47:30;95097.50;;;-4.74;75.50
70684;BME280;58263;48.146;11.440;2024-01-16T06:49:56;95090.84;;;-4.68;75.35
70684;BME280;58263;48.146;11.440;2024-01-16T06:52:21;95098.25;;;-4.82;75.41
70684;BME280;58263;48.146;11.440;2024-01-16T06:54:46;95093.53;;;-4.78;74.86
70684;BME280;58263;48.146;11.440;2024-01-16T06:57:12;95093.41;;;-4.77;74.76
70684;BME280;58263;48.146;11.440;2024-01-16T06:59:37;95095.66;;;-4.55;74.61
70684;BME280;58263;48.146;11.440;2024-01-16T07:02:02;95090.09;;;-4.61;75.21
70684;BME280;58263;48.146;11.440;2024-01-16T07:04:28;95100.06;;;-4.56;74.97
70684;BME280;58263;48.146;11.440;2024-01-16T07:06:54;95099.16;;;-4.73;75.40
70684;BME280;58263;48.146;11.440;2024-01-16T07:09:19;95091.56;;;-4.58;75.34
70684;BME280;58263;48.146;11.440;2024-01-16T07:11:46;95090.63;;;-4.49;75.59
70684;BME280;58263;48.146;11.440;2024-01-16T07:14:11;95087.72;;;-4.46;74.73
70684;BME280;58263;48.146;11.440;2024-01-16T07:16:37;95093.00;;;-4.37;74.70
70684;BME280;58263;48.146;11.440;2024-01-16T07:19:03;95092.44;;;-4.49;75.14
70684;BME280;58263;48.146;11.440;2024-01-16T07:21:28;95095.81;;;-4.57;74.66
70684;BME280;58263;48.146;11.440;2024-01-16T07:23:54;95105.91;;;-4.62;75.96
70684;BME280;58263;48.146;11.440;2024-01-16T07:26:20;95099.72;;;-4.61;76.40
70684;BME280;58263;48.146;11.440;2024-01-16T07:28:46;95097.50;;;-4.48;76.21
70684;BME280;58263;48.146;11.440;2024-01-16T07:31:13;95105.84;;;-4.26;75.45
70684;BME280;58263;48.146;11.440;2024-01-16T07:33:39;95102.25;;;-4.25;74.29
70684;BME280;58263;48.146;11.440;2024-01-16T07:36:05;95102.75;;;-4.21;74.53
70684;BME280;58263;48.146;11.440;2024-01-16T07:38:30;95114.66;;;-4.27;74.36
70684;BME280;58263;48.146;11.440;2024-01-16T07:40:56;95113.06;;;-4.20;74.52
70684;BME280;58263;48.146;11.440;2024-01-16T07:43:21;95109.47;;;-4.19;74.16
70684;BME280;58263;48.146;11.440;2024-01-16T07:45:47;95113.41;;;-4.15;73.91
70684;BME280;58263;48.146;11.440;2024-01-16T07:48:13;95112.78;;;-4.17;74.06
70684;BME280;58263;48.146;11.440;2024-01-16T07:50:38;95108.81;;;-4.21;74.66
70684;BME280;58263;48.146;11.440;2024-01-16T07:53:03;95111.00;;;-4.08;75.01
70684;BME280;58263;48.146;11.440;2024-01-16T07:55:29;95105.75;;;-4.08;74.49
70684;BME280;58263;48.146;11.440;2024-01-16T07:57:54;95101.53;;;-4.01;74.66
70684;BME280;58263;48.146;11.440;2024-01-16T08:00:20;95106.66;;;-3.99;74.98
70684;BME280;58263;48.146;11.440;2024-01-16T08:02:45;95112.09;;;-3.93;74.22
70684;BME280;58263;48.146;11.440;2024-01-16T08:05:11;95108.81;;;-3.86;74.18
70684;BME280;58263;48.146;11.440;2024-01-16T08:07:36;95107.44;;;-3.99;75.04
70684;BME280;58263;48.146;11.440;2024-01-16T08:10:02;95111.75;;;-3.89;74.69
70684;BME280;58263;48.146;11.440;2024-01-16T08:12:27;95108.81;;;-3.86;75.08
70684;BME280;58263;48.146;11.440;2024-01-16T08:14:52;95103.28;;;-3.75;74.17
70684;BME280;58263;48.146;11.440;2024-01-16T08:17:17;95105.59;;;-3.80;73.83
70684;BME280;58263;48.146;11.440;2024-01-16T08:19:43;95108.22;;;-3.72;74.01
70684;BME280;58263;48.146;11.440;2024-01-16T08:22:08;95108.72;;;-3.68;74.45
70684;BME280;58263;48.146;11.440;2024-01-16T08:24:33;95115.63;;;-3.67;74.22
70684;BME280;58263;48.146;11.440;2024-01-16T08:26:59;95111.84;;;-3.65;74.36
70684;BME280;58263;48.146;11.440;2024-01-16T08:29:24;95112.41;;;-3.53;74.16
70684;BME280;58263;48.146;11.440;2024-01-16T08:31:50;95113.41;;;-3.46;74.80
70684;BME280;58263;48.146;11.440;2024-01-16T08:34:17;95116.63;;;-3.52;74.90
70684;BME280;58263;48.146;11.440;2024-01-16T08:36:43;95112.88;;;-3.49;75.44
70684;BME280;58263;48.146;11.440;2024-01-16T08:39:08;95103.44;;;-3.42;75.01
70684;BME280;58263;48.146;11.440;2024-01-16T08:41:34;95098.34;;;-3.35;74.33
70684;BME280;58263;48.146;11.440;2024-01-16T08:43:59;95102.44;;;-3.33;74.72
70684;BME280;58263;48.146;11.440;2024-01-16T08:46:24;95097.72;;;-3.13;74.04
70684;BME280;58263;48.146;11.440;2024-01-16T08:48:49;95102.31;;;-3.23;75.09
70684;BME280;58263;48.146;11.440;2024-01-16T08:51:15;95097.09;;;-3.07;74.45
70684;BME280;58263;48.146;11.440;2024-01-16T08:53:40;95092.50;;;-2.96;74.22
70684;BME280;58263;48.146;11.440;2024-01-16T08:56:05;95091.53;;;-2.95;73.91
70684;BME280;58263;48.146;11.440;2024-01-16T08:58:34;95085.59;;;-2.89;74.57
70684;BME280;58263;48.146;11.440;2024-01-16T09:01:05;95075.78;;;-2.79;74.10
70684;BME280;58263;48.146;11.440;2024-01-16T09:03:32;95072.16;;;-2.61;73.10
70684;BME280;58263;48.146;11.440;2024-01-16T09:05:57;95076.28;;;-2.67;72.47
70684;BME280;58263;48.146;11.440;2024-01-16T09:08:22;95076.91;;;-2.57;73.15
70684;BME280;58263;48.146;11.440;2024-01-16T09:10:48;95079.34;;;-2.47;72.37
70684;BME280;58263;48.146;11.440;2024-01-16T09:13:13;95083.63;;;-2.54;72.82
70684;BME280;58263;48.146;11.440;2024-01-16T09:15:38;95079.69;;;-2.42;72.41
70684;BME280;58263;48.146;11.440;2024-01-16T09:18:04;95072.94;;;-2.28;72.45
70684;BME280;58263;48.146;11.440;2024-01-16T09:20:30;95069.25;;;-2.02;71.74
70684;BME280;58263;48.146;11.440;2024-01-16T09:22:56;95065.81;;;-2.02;70.02
70684;BME280;58263;48.146;11.440;2024-01-16T09:25:21;95067.09;;;-1.90;70.92
70684;BME280;58263;48.146;11.440;2024-01-16T09:27:49;95064.78;;;-1.85;70.58
70684;BME280;58263;48.146;11.440;2024-01-16T09:30:14;95061.25;;;-1.69;69.68
70684;BME280;58263;48.146;11.440;2024-01-16T09:32:39;95069.56;;;-1.57;69.72
70684;BME280;58263;48.146;11.440;2024-01-16T09:35:05;95056.56;;;-1.50;67.88
70684;BME280;58263;48.146;11.440;2024-01-16T09:37:32;95062.84;;;-1.60;67.84
70684;BME280;58263;48.146;11.440;2024-01-16T09:39:57;95065.81;;;-1.63;67.10
70684;BME280;58263;48.146;11.440;2024-01-16T09:42:23;95073.44;;;-1.45;67.92
70684;BME280;58263;48.146;11.440;2024-01-16T09:44:51;95073.63;;;-1.46;66.83
70684;BME280;58263;48.146;11.440;2024-01-16T09:47:17;95067.50;;;-1.39;66.73
70684;BME280;58263;48.146;11.440;2024-01-16T09:49:43;95055.78;;;-1.28;66.04
70684;BME280;58263;48.146;11.440;2024-01-16T09:52:11;95066.88;;;-1.17;66.54
70684;BME280;58263;48.146;11.440;2024-01-16T09:54:36;95057.69;;;-1.22;65.61
70684;BME280;58263;48.146;11.440;2024-01-16T09:57:03;95057.66;;;-1.13;66.48
70684;BME280;58263;48.146;11.440;2024-01-16T09:59:32;95062.59;;;-1.10;65.79
70684;BME280;58263;48.146;11.440;2024-01-16T10:01:58;95063.81;;;-1.21;65.09
70684;BME280;58263;48.146;11.440;2024-01-16T10:04:26;95058.81;;;-1.16;65.45
70684;BME280;58263;48.146;11.440;2024-01-16T10:06:53;95054.09;;;-1.21;63.94
70684;BME280;58263;48.146;11.440;2024-01-16T10:09:19;95046.13;;;-1.12;65.32
70684;BME280;58263;48.146;11.440;2024-01-16T10:11:45;95053.28;;;-1.21;64.98
70684;BME280;58263;48.146;11.440;2024-01-16T10:14:10;95045.31;;;-1.13;64.63
70684;BME280;58263;48.146;11.440;2024-01-16T10:16:56;95053.53;;;-1.08;65.51
70684;BME280;58263;48.146;11.440;2024-01-16T10:19:28;95061.00;;;-0.96;64.48
70684;BME280;58263;48.146;11.440;2024-01-16T10:22:01;95051.81;;;-1.00;64.17
70684;BME280;58263;48.146;11.440;2024-01-16T10:24:26;95045.06;;;-0.80;64.47
70684;BME280;58263;48.146;11.440;2024-01-16T10:26:59;95040.91;;;-0.74;63.67
70684;BME280;58263;48.146;11.440;2024-01-16T10:29:25;95041.38;;;-0.71;63.75
70684;BME280;58263;48.146;11.440;2024-01-16T10:31:51;95037.69;;;-0.61;63.67
70684;BME280;58263;48.146;11.440;2024-01-16T10:34:22;95031.50;;;-0.54;65.40
70684;BME280;58263;48.146;11.440;2024-01-16T10:36:50;95027.78;;;-0.59;65.82
70684;BME280;58263;48.146;11.440;2024-01-16T10:39:17;95026.50;;;-0.63;64.71
70684;BME280;58263;48.146;11.440;2024-01-16T10:41:53;95025.22;;;-0.68;65.46
70684;BME280;58263;48.146;11.440;2024-01-16T10:44:18;95017.69;;;-0.71;66.70
70684;BME280;58263;48.146;11.440;2024-01-16T10:46:44;95009.72;;;-0.62;65.30
70684;BME280;58263;48.146;11.440;2024-01-16T10:49:09;95008.09;;;-0.48;65.62
70684;BME280;58263;48.146;11.440;2024-01-16T10:51:34;95014.81;;;-0.46;66.55
70684;BME280;58263;48.146;11.440;2024-01-16T10:54:03;95009.19;;;-0.43;66.83
70684;BME280;58263;48.146;11.440;2024-01-16T10:56:33;95011.91;;;-0.36;65.96
70684;BME280;58263;48.146;11.440;2024-01-16T10:59:08;95013.09;;;-0.24;64.44
70684;BME280;58263;48.146;11.440;2024-01-16T11:01:37;95000.09;;;-0.10;65.51
70684;BME280;58263;48.146;11.440;2024-01-16T11:04:03;95013.38;;;-0.19;64.67
70684;BME280;58263;48.146;11.440;2024-01-16T11:06:30;95017.00;;;-0.05;65.17
70684;BME280;58263;48.146;11.440;2024-01-16T11:08:56;95014.16;;;0.12;64.61
70684;BME280;58263;48.146;11.440;2024-01-16T11:11:23;95009.00;;;0.19;62.75
70684;BME280;58263;48.146;11.440;2024-01-16T11:13:50;95003.81;;;-0.20;61.10
70684;BME280;58263;48.146;11.440;2024-01-16T11:16:16;95015.38;;;-0.06;61.14
70684;BME280;58263;48.146;11.440;2024-01-16T11:18:41;95006.28;;;-0.18;62.22
70684;BME280;58263;48.146;11.440;2024-01-16T11:21:09;94989.28;;;-0.01;61.63
70684;BME280;58263;48.146;11.440;2024-01-16T11:23:36;94990.16;;;0.07;61.86
70684;BME280;58263;48.146;11.440;2024-01-16T11:26:24;94996.47;;;0.06;61.18
70684;BME280;58263;48.146;11.440;2024-01-16T11:28:50;94979.94;;;0.33;61.84
70684;BME280;58263;48.146;11.440;2024-01-16T11:31:30;94980.00;;;-0.11;62.65
70684;BME280;58263;48.146;11.440;2024-01-16T11:33:57;94982.47;;;-0.10;59.88
70684;BME280;58263;48.146;11.440;2024-01-16T11:36:50;94981.00;;;0.03;61.20
70684;BME280;58263;48.146;11.440;2024-01-16T11:39:20;94977.38;;;-0.11;60.25
70684;BME280;58263;48.146;11.440;2024-01-16T11:41:58;94970.44;;;0.17;59.80
70684;BME280;58263;48.146;11.440;2024-01-16T11:44:47;94979.94;;;0.33;60.25
70684;BME280;58263;48.146;11.440;2024-01-16T11:47:20;94970.34;;;0.47;60.65
70684;BME280;58263;48.146;11.440;2024-01-16T11:49:51;94974.06;;;0.31;59.32
70684;BME280;58263;48.146;11.440;2024-01-16T11:52:42;94974.28;;;0.37;59.82
70684;BME280;58263;48.146;11.440;2024-01-16T11:55:27;94973.38;;;0.44;57.41
70684;BME280;58263;48.146;11.440;2024-01-16T12:00:41;94966.16;;;0.31;59.20
70684;BME280;58263;48.146;11.440;2024-01-16T12:03:08;94961.78;;;0.24;56.93
70684;BME280;58263;48.146;11.440;2024-01-16T12:05:34;94958.63;;;0.13;56.23
70684;BME280;58263;48.146;11.440;2024-01-16T12:07:59;94950.91;;;0.12;57.70
70684;BME280;58263;48.146;11.440;2024-01-16T12:10:25;94937.13;;;0.31;57.24
70684;BME280;58263;48.146;11.440;2024-01-16T12:12:51;94932.69;;;0.17;57.69
70684;BME280;58263;48.146;11.440;2024-01-16T12:15:17;94928.19;;;0.32;58.68
70684;BME280;58263;48.146;11.440;2024-01-16T12:17:55;94926.00;;;0.36;59.17
70684;BME280;58263;48.146;11.440;2024-01-16T12:20:21;94914.94;;;0.47;58.33
70684;BME280;58263;48.146;11.440;2024-01-16T12:23:01;94906.22;;;0.47;57.86
70684;BME280;58263;48.146;11.440;2024-01-16T12:25:28;94899.25;;;0.39;57.46
70684;BME280;58263;48.146;11.440;2024-01-16T12:27:57;94908.94;;;0.32;57.51
70684;BME280;58263;48.146;11.440;2024-01-16T12:30:24;94898.50;;;0.24;57.47
70684;BME280;58263;48.146;11.440;2024-01-16T12:32:50;94894.75;;;0.33;57.35
70684;BME280;58263;48.146;11.440;2024-01-16T12:35:22;94891.78;;;0.21;56.42
70684;BME280;58263;48.146;11.440;2024-01-16T12:38:03;94894.97;;;0.16;57.53
70684;BME280;58263;48.146;11.440;2024-01-16T12:40:31;94884.06;;;0.20;57.35
70684;BME280;58263;48.146;11.440;2024-01-16T12:42:57;94885.84;;;0.19;58.04
70684;BME280;58263;48.146;11.440;2024-01-16T12:45:22;94883.59;;;0.16;57.63
70684;BME280;58263;48.146;11.440;2024-01-16T12:47:50;94878.78;;;0.20;56.74
70684;BME280;58263;48.146;11.440;2024-01-16T12:50:23;94884.72;;;0.07;57.56